Time;durP1;ratioP1;P1;durP2;ratioP2;P2;SDS_P1;SDS_P2;PMS_P1;PMS_P2;Temp;Humidity;BMP_temperature;BMP_pressure;BME280_temperature;BME280_humidity;BME280_pressure;Samples;Min_cycle;Max_cycle;Signal;HPM_P1;HPM_P2
2022/10/24 00:02:26;;;;;;;;;;;;;;;22.58;62.08;99175.75;7281727;19;152792;-56
2022/10/24 00:04:53;;;;;;;;;;;;;;;22.59;62.05;99171.75;7281301;19;152171;-56
2022/10/24 00:07:20;;;;;;;;;;;;;;;22.58;62.03;99168.13;7283673;19;153296;-56
2022/10/24 00:09:46;;;;;;;;;;;;;;;22.61;62.35;99155.31;7281234;19;152569;-56
2022/10/24 00:12:13;;;;;;;;;;;;;;;22.61;62.01;99146.88;7278908;19;152431;-56
2022/10/24 00:14:40;;;;;;;;;;;;;;;22.61;62.08;99138.44;7281421;19;154172;-56
2022/10/24 00:17:07;;;;;;;;;;;;;;;22.61;61.73;99144.06;7288163;19;154407;-56
2022/10/24 00:19:33;;;;;;;;;;;;;;;22.61;61.82;99144.88;7282965;19;152941;-56
2022/10/24 00:22:00;;;;;;;;;;;;;;;22.63;61.63;99148.13;7281525;19;153412;-56
2022/10/24 00:24:27;;;;;;;;;;;;;;;22.61;61.66;99147.69;7281805;19;152734;-57
2022/10/24 00:26:53;;;;;;;;;;;;;;;22.61;61.90;99133.63;7280479;19;152739;-56
2022/10/24 00:29:20;;;;;;;;;;;;;;;22.62;61.77;99135.25;7279736;19;154524;-56
2022/10/24 00:31:48;;;;;;;;;;;;;;;22.63;61.63;99124.78;7283161;19;151559;-56
2022/10/24 00:34:15;;;;;;;;;;;;;;;22.63;61.38;99117.16;7282767;19;152843;-56
2022/10/24 00:36:42;;;;;;;;;;;;;;;22.66;61.54;99106.38;7280552;19;154455;-57
2022/10/24 00:39:10;;;;;;;;;;;;;;;22.67;61.51;99099.56;7290611;19;151928;-56
2022/10/24 00:41:41;;;;;;;;;;;;;;;22.66;61.41;99100.75;7275670;19;153492;-56
2022/10/24 00:44:20;;;;;;;;;;;;;;;22.65;61.39;99091.47;7280153;19;152125;-57
2022/10/24 00:46:53;;;;;;;;;;;;;;;22.66;61.18;99092.28;7281173;19;153129;-57
2022/10/24 00:49:21;;;;;;;;;;;;;;;22.67;61.22;99082.66;7280469;19;152307;-57
2022/10/24 00:51:50;;;;;;;;;;;;;;;22.68;61.15;99092.72;7281288;19;152431;-57
2022/10/24 00:54:17;;;;;;;;;;;;;;;22.66;60.87;99072.59;7281694;19;152790;-57
2022/10/24 00:56:49;;;;;;;;;;;;;;;22.65;60.83;99083.03;7277652;19;153653;-56
2022/10/24 00:59:16;;;;;;;;;;;;;;;22.66;60.87;99081.03;7280669;19;152931;-56
2022/10/24 01:01:44;;;;;;;;;;;;;;;22.65;60.92;99077.41;7285527;19;153025;-58
2022/10/24 01:04:12;;;;;;;;;;;;;;;22.66;60.65;99089.47;7280179;19;151816;-59
2022/10/24 01:07:11;;;;;;;;;;;;;;;22.65;60.90;99082.22;7281031;19;151952;-58
2022/10/24 01:09:37;;;;;;;;;;;;;;;22.64;61.00;99089.84;7278122;19;152735;-57
2022/10/24 01:12:16;;;;;;;;;;;;;;;22.62;60.63;99109.91;7278056;19;152293;-56
2022/10/24 01:15:12;;;;;;;;;;;;;;;22.61;60.63;99096.22;7280642;19;152555;-56
2022/10/24 01:17:48;;;;;;;;;;;;;;;22.60;61.08;99111.47;7276530;19;154489;-56
2022/10/24 01:20:20;;;;;;;;;;;;;;;22.59;60.63;99118.28;7280476;19;151876;-56
2022/10/24 01:22:56;;;;;;;;;;;;;;;22.58;60.57;99128.72;7286168;19;153470;-56
2022/10/24 01:25:41;;;;;;;;;;;;;;;22.58;60.84;99137.16;7282566;19;152065;-56
2022/10/24 01:28:17;;;;;;;;;;;;;;;22.57;60.49;99166.50;7280420;19;153029;-58
2022/10/24 01:30:50;;;;;;;;;;;;;;;22.56;60.82;99173.31;7287008;19;154330;-58
2022/10/24 01:33:24;;;;;;;;;;;;;;;22.54;60.68;99184.09;7286438;19;152054;-58
2022/10/24 01:35:51;;;;;;;;;;;;;;;22.53;60.89;99187.31;7286667;19;154342;-58
2022/10/24 01:38:17;;;;;;;;;;;;;;;22.52;60.84;99191.31;7284713;19;153363;-58
2022/10/24 01:40:44;;;;;;;;;;;;;;;22.52;60.74;99205.38;7287412;19;152004;-58
2022/10/24 01:43:13;;;;;;;;;;;;;;;22.51;61.00;99207.38;7283333;19;153777;-58
2022/10/24 01:45:43;;;;;;;;;;;;;;;22.50;60.98;99210.53;7293477;19;154273;-59
2022/10/24 01:48:13;;;;;;;;;;;;;;;22.50;61.20;99216.16;7286939;19;152714;-59
2022/10/24 01:50:41;;;;;;;;;;;;;;;22.49;61.45;99217.34;7285824;19;154074;-59
2022/10/24 01:53:09;;;;;;;;;;;;;;;22.48;61.33;99227.81;7286616;19;152249;-59
2022/10/24 01:55:36;;;;;;;;;;;;;;;22.46;61.49;99224.53;7286218;19;152135;-59
2022/10/24 01:58:04;;;;;;;;;;;;;;;22.46;61.26;99238.59;7281480;19;153859;-59
2022/10/24 02:00:31;;;;;;;;;;;;;;;22.45;61.34;99245.41;7285560;19;152239;-59
2022/10/24 02:03:02;;;;;;;;;;;;;;;22.45;61.36;99241.75;7286634;19;152283;-59
2022/10/24 02:05:35;;;;;;;;;;;;;;;22.44;61.63;99235.31;7282123;19;154449;-59
2022/10/24 02:08:05;;;;;;;;;;;;;;;22.43;61.15;99246.97;7291732;19;152319;-59
2022/10/24 02:10:34;;;;;;;;;;;;;;;22.42;61.24;99251.75;7286120;19;153989;-59
2022/10/24 02:13:04;;;;;;;;;;;;;;;22.42;61.55;99253.75;7283718;19;152087;-58
2022/10/24 02:15:33;;;;;;;;;;;;;;;22.41;61.68;99275.44;7286502;19;152032;-59
2022/10/24 02:18:00;;;;;;;;;;;;;;;22.38;61.76;99286.63;7284225;19;153042;-58
2022/10/24 02:20:33;;;;;;;;;;;;;;;22.30;59.87;99291.25;7285255;19;152542;-59
2022/10/24 02:23:05;;;;;;;;;;;;;;;22.08;59.17;99306.69;7284641;19;153899;-59
2022/10/24 02:25:33;;;;;;;;;;;;;;;22.05;59.90;99320.66;7285045;19;152139;-58
2022/10/24 02:28:07;;;;;;;;;;;;;;;22.05;60.03;99327.13;7282252;19;152385;-59
2022/10/24 02:30:36;;;;;;;;;;;;;;;22.06;60.40;99328.75;7291528;19;152017;-59
2022/10/24 02:33:03;;;;;;;;;;;;;;;22.03;60.71;99340.69;7285092;19;152149;-58
2022/10/24 02:35:32;;;;;;;;;;;;;;;22.03;60.64;99343.50;7284293;19;152885;-60
2022/10/24 02:38:13;;;;;;;;;;;;;;;22.03;60.46;99359.59;7283905;19;155444;-59
2022/10/24 02:40:41;;;;;;;;;;;;;;;22.02;60.24;99353.16;7283259;19;151940;-59
2022/10/24 02:43:08;;;;;;;;;;;;;;;22.03;60.61;99368.03;7282595;19;152824;-59
2022/10/24 02:45:35;;;;;;;;;;;;;;;22.01;60.39;99373.19;7283883;19;153406;-57
2022/10/24 02:48:04;;;;;;;;;;;;;;;22.00;60.74;99377.16;7286319;19;151952;-61
2022/10/24 02:50:31;;;;;;;;;;;;;;;22.01;60.99;99387.25;7285265;19;152261;-58
2022/10/24 02:52:58;;;;;;;;;;;;;;;21.97;60.54;99397.56;7290685;19;153871;-58
2022/10/24 02:55:25;;;;;;;;;;;;;;;21.88;59.70;99392.06;7285329;19;152951;-58
2022/10/24 02:57:52;;;;;;;;;;;;;;;21.91;61.16;99396.97;7277875;19;152833;-58
2022/10/24 03:00:19;;;;;;;;;;;;;;;21.91;60.32;99407.38;7286042;19;153199;-58
2022/10/24 03:02:45;;;;;;;;;;;;;;;21.91;60.16;99413.00;7283733;19;152867;-58
2022/10/24 03:05:18;;;;;;;;;;;;;;;21.89;60.49;99404.97;7281381;19;152344;-58
2022/10/24 03:07:45;;;;;;;;;;;;;;;21.90;60.62;99422.63;7284349;19;152321;-58
2022/10/24 03:10:12;;;;;;;;;;;;;;;21.89;60.45;99427.44;7284889;19;153209;-58
2022/10/24 03:12:38;;;;;;;;;;;;;;;21.88;60.70;99433.41;7279258;19;152950;-59
2022/10/24 03:15:05;;;;;;;;;;;;;;;21.88;60.71;99427.78;7291906;19;152265;-58
2022/10/24 03:17:32;;;;;;;;;;;;;;;21.87;60.73;99441.03;7282347;19;154604;-59
2022/10/24 03:19:59;;;;;;;;;;;;;;;21.86;60.68;99447.81;7285330;19;152369;-59
2022/10/24 03:22:25;;;;;;;;;;;;;;;21.86;61.09;99450.63;7281444;19;154305;-59
2022/10/24 03:25:05;;;;;;;;;;;;;;;21.86;60.86;99458.25;7284177;19;153425;-59
2022/10/24 03:27:37;;;;;;;;;;;;;;;21.84;60.89;99475.50;7280097;19;151997;-59
2022/10/24 03:30:05;;;;;;;;;;;;;;;21.84;60.89;99486.75;7283269;19;152992;-58
2022/10/24 03:32:33;;;;;;;;;;;;;;;21.84;60.96;99486.75;7284078;19;153484;-58
2022/10/24 03:35:00;;;;;;;;;;;;;;;21.81;61.24;99487.44;7290791;19;152767;-59
2022/10/24 03:37:26;;;;;;;;;;;;;;;21.84;61.87;99497.16;7282057;19;152269;-59
2022/10/24 03:39:53;;;;;;;;;;;;;;;21.84;61.50;99503.63;7283041;19;152118;-58
2022/10/24 03:42:20;;;;;;;;;;;;;;;21.83;61.36;99512.38;7278081;19;152917;-58
2022/10/24 03:44:47;;;;;;;;;;;;;;;21.82;61.48;99516.38;7281238;19;152679;-59
2022/10/24 03:47:13;;;;;;;;;;;;;;;21.80;61.93;99511.13;7281747;19;152516;-58
2022/10/24 03:49:40;;;;;;;;;;;;;;;21.80;61.72;99516.75;7284856;19;153596;-58
2022/10/24 03:52:07;;;;;;;;;;;;;;;21.80;62.33;99511.13;7281372;19;154084;-58
2022/10/24 03:54:34;;;;;;;;;;;;;;;21.80;61.87;99518.72;7284912;19;152173;-58
2022/10/24 03:57:01;;;;;;;;;;;;;;;21.78;61.82;99524.69;7284871;19;153414;-58
2022/10/24 03:59:28;;;;;;;;;;;;;;;21.78;62.05;99532.31;7283588;19;152364;-58
2022/10/24 04:01:54;;;;;;;;;;;;;;;21.76;62.33;99524.22;7281684;19;152798;-58
2022/10/24 04:04:21;;;;;;;;;;;;;;;21.77;62.07;99539.91;7281750;19;152112;-61
2022/10/24 04:06:48;;;;;;;;;;;;;;;21.75;62.26;99536.66;7282709;19;151865;-57
2022/10/24 04:09:14;;;;;;;;;;;;;;;21.77;62.74;99553.16;7284352;19;153078;-56
2022/10/24 04:11:41;;;;;;;;;;;;;;;21.74;62.65;99555.50;7278514;19;155566;-56
2022/10/24 04:14:08;;;;;;;;;;;;;;;21.74;62.63;99563.94;7281085;19;152394;-57
2022/10/24 04:16:35;;;;;;;;;;;;;;;21.74;62.88;99565.94;7282219;19;152166;-56
2022/10/24 04:19:02;;;;;;;;;;;;;;;21.74;62.77;99566.75;7289890;19;152314;-56
2022/10/24 04:21:28;;;;;;;;;;;;;;;21.73;62.69;99581.16;7279725;19;153191;-56
2022/10/24 04:23:55;;;;;;;;;;;;;;;21.72;62.52;99579.50;7281441;19;154337;-57
2022/10/24 04:26:22;;;;;;;;;;;;;;;21.72;62.74;99591.56;7278324;19;151847;-59
2022/10/24 04:28:49;;;;;;;;;;;;;;;21.72;62.63;99590.75;7280924;19;152761;-59
2022/10/24 04:31:16;;;;;;;;;;;;;;;21.70;62.73;99605.16;7280057;19;153418;-59
2022/10/24 04:33:48;;;;;;;;;;;;;;;21.71;62.53;99611.63;7282699;19;152118;-59
2022/10/24 04:36:15;;;;;;;;;;;;;;;21.70;62.82;99615.59;7281312;19;153478;-59
2022/10/24 04:38:42;;;;;;;;;;;;;;;21.69;62.74;99611.13;7282128;19;153567;-58
2022/10/24 04:41:08;;;;;;;;;;;;;;;21.69;62.87;99619.56;7286765;19;152399;-59
2022/10/24 04:43:37;;;;;;;;;;;;;;;21.69;62.90;99625.19;7279763;19;154387;-58
2022/10/24 04:46:04;;;;;;;;;;;;;;;21.68;62.84;99634.78;7281523;19;152479;-59
2022/10/24 04:48:31;;;;;;;;;;;;;;;21.68;62.98;99637.59;7280546;19;153484;-58
2022/10/24 04:50:57;;;;;;;;;;;;;;;21.67;62.38;99641.56;7279494;19;153556;-58
2022/10/24 04:53:24;;;;;;;;;;;;;;;21.67;62.34;99647.19;7283208;19;154127;-58
2022/10/24 04:55:51;;;;;;;;;;;;;;;21.65;62.68;99656.00;7281278;19;152672;-58
2022/10/24 04:58:17;;;;;;;;;;;;;;;21.65;62.58;99666.41;7276391;19;154649;-58
2022/10/24 05:00:47;;;;;;;;;;;;;;;21.63;62.56;99658.31;7287940;19;152876;-58
2022/10/24 05:03:14;;;;;;;;;;;;;;;21.62;62.17;99670.72;7292322;19;153794;-58
2022/10/24 05:05:41;;;;;;;;;;;;;;;21.62;62.63;99670.72;7287103;19;152846;-58
2022/10/24 05:08:07;;;;;;;;;;;;;;;21.62;62.10;99675.56;7287593;19;153366;-58
2022/10/24 05:10:34;;;;;;;;;;;;;;;21.61;62.21;99679.53;7286174;19;153311;-58
2022/10/24 05:13:01;;;;;;;;;;;;;;;21.61;62.58;99691.59;7284621;19;152473;-58
2022/10/24 05:15:30;;;;;;;;;;;;;;;21.60;62.26;99689.94;7287704;19;153489;-58
2022/10/24 05:17:57;;;;;;;;;;;;;;;21.59;62.41;99699.53;7286982;19;153753;-58
2022/10/24 05:20:24;;;;;;;;;;;;;;;21.59;62.61;99701.53;7286931;19;152244;-58
2022/10/24 05:22:50;;;;;;;;;;;;;;;21.58;62.73;99719.53;7285254;19;153623;-58
2022/10/24 05:25:17;;;;;;;;;;;;;;;21.57;62.48;99717.94;7293765;19;151766;-59
2022/10/24 05:27:44;;;;;;;;;;;;;;;21.56;62.62;99721.91;7284372;19;153483;-58
2022/10/24 05:30:11;;;;;;;;;;;;;;;21.56;62.62;99727.53;7286666;19;153190;-58
2022/10/24 05:32:38;;;;;;;;;;;;;;;21.56;62.60;99739.59;7287172;19;151805;-59
2022/10/24 05:35:09;;;;;;;;;;;;;;;21.54;62.66;99736.28;7287115;19;152666;-58
2022/10/24 05:37:37;;;;;;;;;;;;;;;21.54;62.66;99749.50;7285784;19;152269;-57
2022/10/24 05:40:06;;;;;;;;;;;;;;;21.52;62.30;99755.50;7286874;19;152116;-58
2022/10/24 05:42:33;;;;;;;;;;;;;;;21.51;62.48;99756.66;7281727;19;152045;-57
2022/10/24 05:45:00;;;;;;;;;;;;;;;21.51;62.76;99762.28;7292446;19;153870;-57
2022/10/24 05:47:27;;;;;;;;;;;;;;;21.52;62.43;99757.47;7285244;19;152725;-57
2022/10/24 05:49:54;;;;;;;;;;;;;;;21.52;62.56;99771.53;7285227;19;153000;-57
2022/10/24 05:52:21;;;;;;;;;;;;;;;21.50;62.55;99776.66;7286151;19;152530;-58
2022/10/24 05:54:54;;;;;;;;;;;;;;;21.48;62.23;99771.41;7287351;19;152716;-57
2022/10/24 05:57:32;;;;;;;;;;;;;;;21.49;62.33;99783.44;7280982;19;154183;-57
2022/10/24 05:59:59;;;;;;;;;;;;;;;21.48;62.61;99784.63;7286461;19;153300;-57
2022/10/24 06:02:26;;;;;;;;;;;;;;;21.46;62.37;99789.75;7284839;19;154302;-57
2022/10/24 06:04:57;;;;;;;;;;;;;;;21.46;62.47;99792.56;7283605;19;152559;-58
2022/10/24 06:07:27;;;;;;;;;;;;;;;21.44;62.40;99798.53;7294235;19;152280;-57
2022/10/24 06:09:54;;;;;;;;;;;;;;;21.45;62.14;99796.53;7283315;19;152419;-58
2022/10/24 06:12:21;;;;;;;;;;;;;;;21.44;62.21;99806.97;7281161;19;152065;-57
2022/10/24 06:14:48;;;;;;;;;;;;;;;21.44;61.97;99804.16;7286175;19;154122;-57
2022/10/24 06:17:14;;;;;;;;;;;;;;;21.45;61.97;99811.41;7281995;19;154477;-58
2022/10/24 06:19:42;;;;;;;;;;;;;;;21.43;61.98;99825.00;7286562;19;152210;-58
2022/10/24 06:22:09;;;;;;;;;;;;;;;21.43;61.59;99812.94;7283833;19;152499;-58
2022/10/24 06:24:36;;;;;;;;;;;;;;;21.41;61.77;99824.50;7284933;19;154182;-58
2022/10/24 06:27:04;;;;;;;;;;;;;;;21.42;61.88;99822.53;7282927;19;152302;-58
2022/10/24 06:29:31;;;;;;;;;;;;;;;21.40;61.60;99822.84;7290144;19;152828;-58
2022/10/24 06:31:58;;;;;;;;;;;;;;;21.40;62.06;99825.66;7284196;19;152466;-58
2022/10/24 06:34:25;;;;;;;;;;;;;;;21.40;61.99;99830.47;7286484;19;152840;-58
2022/10/24 06:36:52;;;;;;;;;;;;;;;21.39;61.54;99834.47;7284303;19;154049;-58
2022/10/24 06:39:18;;;;;;;;;;;;;;;21.39;61.65;99837.28;7285612;19;151983;-58
2022/10/24 06:41:45;;;;;;;;;;;;;;;21.38;61.67;99839.25;7282257;19;152527;-58
2022/10/24 06:44:11;;;;;;;;;;;;;;;21.36;61.46;99835.94;7283389;19;154684;-58
2022/10/24 06:46:38;;;;;;;;;;;;;;;21.38;61.89;99841.25;7285278;19;152676;-57
2022/10/24 06:49:05;;;;;;;;;;;;;;;21.37;61.68;99856.44;7286062;19;153241;-57
2022/10/24 06:51:32;;;;;;;;;;;;;;;21.34;61.92;99863.59;7291001;19;153292;-57
2022/10/24 06:53:59;;;;;;;;;;;;;;;21.34;61.39;99863.59;7282908;19;152419;-57
2022/10/24 06:56:25;;;;;;;;;;;;;;;21.35;61.53;99861.59;7281347;19;154085;-57
2022/10/24 06:58:52;;;;;;;;;;;;;;;21.33;61.52;99875.97;7284995;19;152246;-57
2022/10/24 07:01:21;;;;;;;;;;;;;;;21.32;61.66;99879.94;7284342;19;153385;-58
2022/10/24 07:03:48;;;;;;;;;;;;;;;21.30;62.03;99888.69;7282355;19;153868;-57
2022/10/24 07:06:15;;;;;;;;;;;;;;;21.30;61.85;99890.72;7283846;19;152208;-58
2022/10/24 07:08:42;;;;;;;;;;;;;;;21.30;62.13;99907.56;7285570;19;153654;-58
2022/10/24 07:11:09;;;;;;;;;;;;;;;21.30;61.83;99899.16;7281090;19;152774;-58
2022/10/24 07:13:36;;;;;;;;;;;;;;;21.28;61.79;99904.25;7289811;19;151986;-57
2022/10/24 07:16:03;;;;;;;;;;;;;;;21.27;62.06;99905.41;7283127;19;153356;-57
2022/10/24 07:18:29;;;;;;;;;;;;;;;21.28;62.08;99904.25;7283374;19;152050;-57
2022/10/24 07:21:16;;;;;;;;;;;;;;;21.27;61.86;99911.03;7284980;19;152225;-57
2022/10/24 07:23:43;;;;;;;;;;;;;;;21.28;62.42;99919.13;7279130;19;154310;-56
2022/10/24 07:26:12;;;;;;;;;;;;;;;21.29;61.64;99928.41;7281329;19;152582;-58
2022/10/24 07:28:39;;;;;;;;;;;;;;;21.22;60.78;99930.91;7284006;19;153843;-57
2022/10/24 07:31:05;;;;;;;;;;;;;;;21.20;60.99;99936.88;7283194;19;154056;-57
2022/10/24 07:33:33;;;;;;;;;;;;;;;21.21;61.27;99941.31;7291565;19;152229;-57
2022/10/24 07:36:00;;;;;;;;;;;;;;;21.20;61.93;99936.03;7282875;19;154134;-57
2022/10/24 07:38:26;;;;;;;;;;;;;;;21.18;61.94;99942.00;7283266;19;152336;-57
2022/10/24 07:40:54;;;;;;;;;;;;;;;21.16;61.63;99944.31;7284749;19;152372;-57
2022/10/24 07:43:20;;;;;;;;;;;;;;;21.15;61.76;99945.47;7277377;19;154320;-57
2022/10/24 07:45:47;;;;;;;;;;;;;;;21.15;61.52;99951.09;7283746;19;151739;-57
2022/10/24 07:48:17;;;;;;;;;;;;;;;21.15;61.56;99947.47;7284093;19;153144;-57
2022/10/24 07:50:45;;;;;;;;;;;;;;;21.15;61.89;99955.88;7282780;19;153988;-57
2022/10/24 07:53:12;;;;;;;;;;;;;;;21.13;61.56;99953.41;7283532;19;153689;-57
2022/10/24 07:55:39;;;;;;;;;;;;;;;21.14;61.67;99962.66;7288060;19;152308;-57
2022/10/24 07:58:06;;;;;;;;;;;;;;;21.13;61.69;99970.25;7279987;19;151812;-57
2022/10/24 08:00:33;;;;;;;;;;;;;;;21.12;62.05;99979.00;7283647;19;152721;-57
2022/10/24 08:03:00;;;;;;;;;;;;;;;21.10;61.84;99984.13;7281405;19;153354;-57
2022/10/24 08:05:27;;;;;;;;;;;;;;;21.09;61.89;99979.66;7277973;19;151996;-57
2022/10/24 08:07:53;;;;;;;;;;;;;;;21.10;61.80;99990.56;7283306;19;152796;-57
2022/10/24 08:10:30;;;;;;;;;;;;;;;21.09;62.14;99993.72;7282548;19;153987;-57
2022/10/24 08:12:57;;;;;;;;;;;;;;;21.09;62.06;99986.09;7279051;19;152292;-57
2022/10/24 08:15:26;;;;;;;;;;;;;;;21.09;62.41;99999.31;7282754;19;152281;-57
2022/10/24 08:17:53;;;;;;;;;;;;;;;21.08;62.01;100000.47;7286946;19;153413;-58
2022/10/24 08:20:20;;;;;;;;;;;;;;;21.08;62.07;100003.28;7283571;19;152768;-57
2022/10/24 08:22:47;;;;;;;;;;;;;;;21.10;62.36;100006.59;7281388;19;153397;-58
2022/10/24 08:25:19;;;;;;;;;;;;;;;21.10;62.08;100006.59;7283296;19;153239;-57
2022/10/24 08:27:49;;;;;;;;;;;;;;;21.13;62.66;100020.00;7279631;19;154102;-57
2022/10/24 08:30:16;;;;;;;;;;;;;;;21.16;62.29;100013.72;7282145;19;153276;-57
2022/10/24 08:32:43;;;;;;;;;;;;;;;21.18;62.07;100017.00;7280739;19;151825;-57
2022/10/24 08:35:14;;;;;;;;;;;;;;;21.18;62.03;100025.44;7286575;19;152939;-57
2022/10/24 08:37:41;;;;;;;;;;;;;;;21.17;62.05;100026.59;7287396;19;154084;-57
2022/10/24 08:40:11;;;;;;;;;;;;;;;21.17;62.04;100033.03;7296509;19;151884;-58
2022/10/24 08:42:38;;;;;;;;;;;;;;;21.16;61.69;100028.59;7282520;19;153534;-57
2022/10/24 08:45:15;;;;;;;;;;;;;;;21.16;61.63;100028.59;7288600;19;152505;-58
2022/10/24 08:47:49;;;;;;;;;;;;;;;21.14;61.63;100030.91;7288730;19;153570;-58
2022/10/24 08:50:24;;;;;;;;;;;;;;;21.15;61.61;100040.16;7288388;19;153518;-57
2022/10/24 08:52:51;;;;;;;;;;;;;;;21.14;61.80;100042.13;7288229;19;154337;-57
2022/10/24 08:55:24;;;;;;;;;;;;;;;21.12;61.25;100032.38;7289181;19;153777;-57
2022/10/24 08:58:15;;;;;;;;;;;;;;;21.11;61.51;100047.56;7283021;19;157356;-56
2022/10/24 09:00:44;;;;;;;;;;;;;;;21.09;61.80;100053.53;7284820;19;151755;-57
2022/10/24 09:03:17;;;;;;;;;;;;;;;21.08;61.21;100053.84;7294142;19;153666;-57
2022/10/24 09:06:11;;;;;;;;;;;;;;;21.05;61.63;100052.53;7286869;19;151949;-56
2022/10/24 09:08:57;;;;;;;;;;;;;;;21.04;61.76;100062.13;7288015;19;152775;-58
2022/10/24 09:11:38;;;;;;;;;;;;;;;21.04;61.81;100066.91;7283086;19;152770;-57
2022/10/24 09:14:12;;;;;;;;;;;;;;;21.02;61.68;100072.06;7288404;19;153628;-58
2022/10/24 09:16:43;;;;;;;;;;;;;;;21.01;61.63;100088.06;7288522;19;153499;-58
2022/10/24 09:19:18;;;;;;;;;;;;;;;21.01;61.23;100087.25;7287312;19;154405;-57
2022/10/24 09:21:45;;;;;;;;;;;;;;;21.00;61.49;100089.22;7287859;19;152426;-57
2022/10/24 09:24:27;;;;;;;;;;;;;;;21.00;61.28;100094.00;7284891;19;153529;-57
2022/10/24 09:26:54;;;;;;;;;;;;;;;21.00;61.76;100099.63;7291418;19;152150;-57
2022/10/24 09:29:20;;;;;;;;;;;;;;;21.00;61.59;100091.19;7286914;19;152779;-57
2022/10/24 09:31:48;;;;;;;;;;;;;;;20.99;61.25;100090.38;7286283;19;153374;-57
2022/10/24 09:34:16;;;;;;;;;;;;;;;21.00;61.23;100094.00;7287993;19;151784;-58
2022/10/24 09:36:43;;;;;;;;;;;;;;;20.99;61.62;100096.00;7286873;19;152835;-57
2022/10/24 09:39:29;;;;;;;;;;;;;;;20.99;61.16;100092.34;7286217;19;154139;-57
2022/10/24 09:41:57;;;;;;;;;;;;;;;20.99;62.15;100100.78;7285401;19;152938;-58
2022/10/24 09:44:35;;;;;;;;;;;;;;;21.01;61.67;100101.28;7284370;19;153797;-57
2022/10/24 09:47:03;;;;;;;;;;;;;;;21.03;61.89;100105.41;7291452;19;152394;-57
2022/10/24 09:49:37;;;;;;;;;;;;;;;21.04;61.73;100114.66;7285125;19;153908;-57
2022/10/24 09:52:04;;;;;;;;;;;;;;;21.04;61.72;100125.88;7286003;19;154306;-58
2022/10/24 09:54:31;;;;;;;;;;;;;;;21.06;61.81;100129.19;7287331;19;152949;-57
2022/10/24 09:57:04;;;;;;;;;;;;;;;21.06;62.24;100129.19;7285403;19;153757;-57
2022/10/24 09:59:43;;;;;;;;;;;;;;;21.05;62.31;100127.53;7285219;19;154141;-57
2022/10/24 10:02:09;;;;;;;;;;;;;;;21.05;62.94;100145.22;7287155;19;154234;-58
2022/10/24 10:04:36;;;;;;;;;;;;;;;21.07;62.17;100136.47;7285329;19;154764;-57
2022/10/24 10:07:10;;;;;;;;;;;;;;;21.06;62.15;100135.66;7284505;19;153996;-57
2022/10/24 10:09:41;;;;;;;;;;;;;;;21.06;61.79;100140.44;7294678;19;152034;-58
2022/10/24 10:12:26;;;;;;;;;;;;;;;21.07;61.87;100147.72;7282009;19;152510;-58
2022/10/24 10:14:53;;;;;;;;;;;;;;;21.08;62.08;100141.75;7285186;19;152584;-58
2022/10/24 10:17:24;;;;;;;;;;;;;;;21.10;61.23;100155.47;7286679;19;154694;-57
2022/10/24 10:19:52;;;;;;;;;;;;;;;21.10;61.74;100156.28;7286792;19;154221;-58
2022/10/24 10:22:30;;;;;;;;;;;;;;;21.09;61.71;100151.00;7289101;19;151932;-58
2022/10/24 10:24:58;;;;;;;;;;;;;;;21.11;61.44;100148.69;7286364;19;153014;-58
2022/10/24 10:27:38;;;;;;;;;;;;;;;21.11;61.47;100154.31;7283753;19;153897;-58
2022/10/24 10:30:10;;;;;;;;;;;;;;;21.10;61.76;100156.28;7287486;19;152878;-59
2022/10/24 10:32:52;;;;;;;;;;;;;;;21.10;61.40;100159.09;7296091;19;153013;-59
2022/10/24 10:35:21;;;;;;;;;;;;;;;21.12;60.92;100161.59;7287389;19;151897;-59
2022/10/24 10:37:54;;;;;;;;;;;;;;;21.03;59.60;100152.34;7287723;19;152335;-61
2022/10/24 10:40:36;;;;;;;;;;;;;;;20.95;58.48;100165.22;7286989;19;152819;-61
2022/10/24 10:43:15;;;;;;;;;;;;;;;20.88;57.86;100172.50;7282541;19;152510;-61
2022/10/24 10:46:00;;;;;;;;;;;;;;;20.82;57.81;100172.66;7287382;19;152335;-60
2022/10/24 10:48:36;;;;;;;;;;;;;;;20.79;57.85;100172.50;7286463;19;153402;-61
2022/10/24 10:51:11;;;;;;;;;;;;;;;20.69;56.03;100182.06;7287247;19;151954;-61
2022/10/24 10:53:46;;;;;;;;;;;;;;;20.63;56.25;100180.53;7284466;19;153249;-58
2022/10/24 10:56:22;;;;;;;;;;;;;;;20.64;57.36;100187.00;7291072;19;152183;-61
2022/10/24 10:59:07;;;;;;;;;;;;;;;20.67;57.75;100181.53;7286633;19;152092;-60
2022/10/24 11:01:40;;;;;;;;;;;;;;;20.72;58.16;100183.38;7285552;19;154052;-61
2022/10/24 11:04:25;;;;;;;;;;;;;;;20.74;57.91;100186.69;7286093;19;151742;-61
2022/10/24 11:07:03;;;;;;;;;;;;;;;20.80;59.14;100174.16;7284544;19;152053;-60
2022/10/24 11:09:35;;;;;;;;;;;;;;;20.86;59.63;100190.47;7285591;19;152630;-61
2022/10/24 11:12:08;;;;;;;;;;;;;;;20.89;60.36;100186.22;7283971;19;154090;-60
2022/10/24 11:14:41;;;;;;;;;;;;;;;20.92;60.61;100185.53;7283485;19;152378;-60
2022/10/24 11:17:11;;;;;;;;;;;;;;;20.95;60.29;100192.47;7283746;19;153890;-60
2022/10/24 11:19:45;;;;;;;;;;;;;;;20.97;59.72;100176.13;7294035;19;152422;-61
2022/10/24 11:22:16;;;;;;;;;;;;;;;20.99;59.66;100185.03;7282500;19;154236;-60
2022/10/24 11:24:45;;;;;;;;;;;;;;;21.01;60.04;100188.34;7284201;19;152460;-60
2022/10/24 11:27:21;;;;;;;;;;;;;;;21.03;59.80;100200.88;7282685;19;152872;-61
2022/10/24 11:29:52;;;;;;;;;;;;;;;21.05;59.28;100190.16;7283441;19;152999;-60
2022/10/24 11:32:38;;;;;;;;;;;;;;;21.07;59.00;100190.69;7286088;19;151897;-60
2022/10/24 11:35:15;;;;;;;;;;;;;;;21.08;58.97;100195.13;7286113;19;152007;-60
2022/10/24 11:37:45;;;;;;;;;;;;;;;21.09;59.13;100193.13;7283995;19;154408;-60
2022/10/24 11:40:15;;;;;;;;;;;;;;;21.12;58.83;100195.31;7284557;19;152535;-60
2022/10/24 11:42:50;;;;;;;;;;;;;;;21.13;58.69;100199.78;7288365;19;153422;-60
2022/10/24 11:45:19;;;;;;;;;;;;;;;21.14;58.91;100193.00;7283976;19;151617;-60
2022/10/24 11:47:54;;;;;;;;;;;;;;;21.18;58.76;100210.84;7285763;19;154172;-60
2022/10/24 11:50:39;;;;;;;;;;;;;;;21.18;58.36;100203.25;7284915;19;154105;-60
2022/10/24 11:53:11;;;;;;;;;;;;;;;21.19;58.64;100209.69;7284247;19;151934;-60
2022/10/24 11:55:40;;;;;;;;;;;;;;;21.21;58.42;100207.41;7286161;19;151930;-60
2022/10/24 11:58:11;;;;;;;;;;;;;;;21.23;58.40;100199.44;7280662;19;153956;-60
2022/10/24 12:00:55;;;;;;;;;;;;;;;21.26;58.82;100210.00;7286481;19;152484;-61
2022/10/24 12:03:28;;;;;;;;;;;;;;;21.29;58.39;100217.78;7290640;19;152735;-60
2022/10/24 12:06:07;;;;;;;;;;;;;;;21.31;58.24;100218.28;7281932;19;151942;-60
2022/10/24 12:08:34;;;;;;;;;;;;;;;21.32;58.18;100210.69;7283298;19;153643;-61
2022/10/24 12:11:10;;;;;;;;;;;;;;;21.34;58.02;100214.00;7282667;19;153527;-59
2022/10/24 12:13:45;;;;;;;;;;;;;;;21.35;58.33;100208.03;7281105;19;152355;-60
2022/10/24 12:16:12;;;;;;;;;;;;;;;21.36;57.81;100212.50;7284667;19;153004;-60
2022/10/24 12:18:50;;;;;;;;;;;;;;;21.39;57.56;100206.22;7282927;19;153411;-61
2022/10/24 12:21:19;;;;;;;;;;;;;;;21.38;57.52;100200.94;7284352;19;152034;-60
2022/10/24 12:23:58;;;;;;;;;;;;;;;21.40;57.34;100202.22;7284452;19;153006;-60
2022/10/24 12:26:26;;;;;;;;;;;;;;;21.42;57.44;100211.16;7286914;19;152844;-61
2022/10/24 12:28:57;;;;;;;;;;;;;;;21.44;58.10;100197.59;7284465;19;153102;-60
2022/10/24 12:31:35;;;;;;;;;;;;;;;21.45;57.76;100204.03;7283045;19;153417;-60
2022/10/24 12:34:14;;;;;;;;;;;;;;;21.47;58.31;100194.13;7285228;19;151756;-60
2022/10/24 12:37:00;;;;;;;;;;;;;;;21.47;58.41;100191.31;7283473;19;152080;-60
2022/10/24 12:39:31;;;;;;;;;;;;;;;21.50;58.36;100201.91;7282165;19;153766;-60
2022/10/24 12:41:58;;;;;;;;;;;;;;;21.54;58.55;100204.84;7281108;19;152287;-60
2022/10/24 12:44:28;;;;;;;;;;;;;;;21.56;58.02;100203.38;7282908;19;153504;-60
2022/10/24 12:46:54;;;;;;;;;;;;;;;21.59;57.92;100191.47;7281909;19;152603;-59
2022/10/24 12:49:27;;;;;;;;;;;;;;;21.61;58.20;100213.63;7288705;19;152126;-60